rusio

最新の値

Datetime Temperature Humidity Pressure
2021-07-27 10:19 27.11 66.1 995.21
2021-07-27 10:09 26.99 66.44 995.17
2021-07-27 09:59 27.05 65.49 995.08
2021-07-27 09:49 26.82 66.17 995.08
2021-07-27 09:39 26.69 66.88 994.98
2021-07-27 09:29 26.86 66.45 994.93
2021-07-27 09:19 26.51 67.57 994.93
2021-07-27 09:09 26.69 66.6 994.89
2021-07-27 08:59 27 65.07 994.88
2021-07-27 08:49 26.67 66.09 994.72
2021-07-27 08:39 26.55 66.6 994.67
2021-07-27 08:29 26.65 66.63 994.85
2021-07-27 08:19 26.61 67.3 994.74
2021-07-27 08:09 26.64 66.57 994.82
2021-07-27 07:59 26.59 65.85 994.91
2021-07-27 07:49 27.44 62.61 994.91
2021-07-27 07:39 27.51 62.03 994.98
2021-07-27 07:29 27.37 62 995.09
2021-07-27 07:19 27.2 62.41 995.03
2021-07-27 07:09 27.22 62.26 995.12
2021-07-27 06:59 27.28 61.91 994.98
2021-07-27 06:49 27.51 60.83 995.05
2021-07-27 06:39 27.41 60.69 995.18
2021-07-27 06:29 27.46 60.21 995.15
2021-07-27 06:19 27.45 59.75 995.09
2021-07-27 06:09 27.35 59.81 995.27
2021-07-27 05:59 27.34 59.64 995.24
2021-07-27 05:49 27.47 59.27 995.23
2021-07-27 05:39 27.44 59.14 995.31
2021-07-27 05:29 27.56 58.59 995.45
2021-07-27 05:19 27.5 58.54 995.47
2021-07-27 05:09 27.62 58.12 995.34
2021-07-27 04:59 27.68 57.99 995.5
2021-07-27 04:49 27.78 57.82 995.51
2021-07-27 04:39 27.77 58.04 995.55
2021-07-27 04:29 27.84 57.45 995.57
2021-07-27 04:19 27.92 57.1 995.51
2021-07-27 04:09 27.93 57.06 995.43
2021-07-27 03:59 28.06 56.67 995.44
2021-07-27 03:49 28.04 56.65 995.48
2021-07-27 03:39 28.19 56.14 995.62
2021-07-27 03:29 28.27 55.75 995.73
2021-07-27 03:18 28.43 55.3 995.89
2021-07-27 03:08 28.56 54.79 995.92
2021-07-27 02:58 28.68 54.22 995.99
2021-07-27 02:48 28.82 53.68 996.23
2021-07-27 02:38 29.01 53.02 996.47
2021-07-27 02:28 29.16 52.44 996.48
2021-07-27 02:18 29.4 51.62 996.63
2021-07-27 02:08 29.63 50.88 996.92
2021-07-27 01:58 29.64 50.81 996.78
2021-07-27 01:48 29.91 50.43 996.72
2021-07-27 01:38 30.17 49.89 996.84
2021-07-27 01:28 30.47 49.16 997.1
2021-07-27 01:18 30.43 48.88 996.98
2021-07-27 01:08 30.47 48.88 997.13
2021-07-27 00:58 30.71 48.44 997.36
2021-07-27 00:48 30.9 48.67 997.46
2021-07-27 00:38 30.9 48.49 997.62
2021-07-27 00:28 31.05 48.49 997.67
2021-07-27 00:18 31.28 48.66 997.74
2021-07-27 00:08 31.69 47.44 997.85
2021-07-26 23:58 31.68 47.44 997.89
2021-07-26 23:48 31.63 47.13 997.89
2021-07-26 23:38 31.72 46.12 997.85
2021-07-26 23:28 31.63 46.73 997.86
2021-07-26 23:18 31.94 45.61 997.71
2021-07-26 23:08 31.84 45.91 997.76
2021-07-26 22:58 31.77 45.48 998.01
2021-07-26 22:48 31.83 45.84 998.31
2021-07-26 22:38 31.87 44.87 998.43
2021-07-26 22:28 31.91 44.01 998.42
2021-07-26 22:18 31.87 43.14 998.25
2021-07-26 22:08 31.85 42.51 998.64
2021-07-26 21:58 31.83 41.95 998.62
2021-07-26 21:48 31.92 42.1 998.63
2021-07-26 21:38 31.74 43.64 998.64
2021-07-26 21:28 31.62 45.15 998.78
2021-07-26 21:18 31.69 45.38 998.74
2021-07-26 21:08 31.47 46.14 998.86
2021-07-26 20:58 31.11 46.87 998.85
2021-07-26 20:48 31.23 46.6 998.83
2021-07-26 20:38 31.19 46.63 998.87
2021-07-26 20:28 31.09 46.74 999.01
2021-07-26 20:18 30.72 47.77 998.97
2021-07-26 20:08 30.7 48.05 998.98
2021-07-26 19:58 30.29 48.93 998.94
2021-07-26 19:48 30.28 48.78 998.93
2021-07-26 19:38 30.07 49.16 998.92
2021-07-26 19:28 30.33 48.48 998.92
2021-07-26 19:18 30.55 48.11 998.88
2021-07-26 19:08 30.76 47.37 998.85
2021-07-26 18:58 30.82 47.04 998.83
2021-07-26 18:48 30.98 46.64 998.99
2021-07-26 18:38 30.97 46.56 998.97
2021-07-26 18:28 30.98 46.59 998.89
2021-07-26 18:18 31.02 46.29 998.84
2021-07-26 18:08 31.02 45.92 998.86
2021-07-26 17:58 31.14 45.53 998.74
2021-07-26 17:48 30.94 45.68 998.89
2021-07-26 17:38 30.88 45.35 999.12
2021-07-26 17:28 30.5 46.04 999.25
2021-07-26 17:18 30.13 46.87 999.28
2021-07-26 17:08 30.12 46.78 999.47
2021-07-26 16:58 30.32 46.16 999.67
2021-07-26 16:48 30.35 45.55 999.92
2021-07-26 16:38 30.64 45.18 1000.05
2021-07-26 16:28 30.64 45.66 1000.15
2021-07-26 16:18 30.62 45.37 1000.33
2021-07-26 16:08 30.83 45.07 1000.46
2021-07-26 15:58 30.78 45.33 1000.48
2021-07-26 15:47 31.02 45.27 1000.58
2021-07-26 15:37 30.91 46.16 1000.52
2021-07-26 15:27 30.67 46.82 1000.9
2021-07-26 15:17 30.85 46.04 1000.91
2021-07-26 15:07 30.83 45.43 1000.98
2021-07-26 14:57 30.91 44.73 1001.05
2021-07-26 14:47 31.16 43.76 1001.04
2021-07-26 14:37 31.02 43.27 1001.13
2021-07-26 14:27 31.1 43.18 1001.32
2021-07-26 14:17 31.82 43.11 1001.41
2021-07-26 14:07 32.14 43.71 1001.34
2021-07-26 13:57 32.45 42.97 1001.35
2021-07-26 13:47 32.46 42.3 1001.32
2021-07-26 13:37 32.52 42.16 1001.39
2021-07-26 13:27 32.78 41.99 1001.38
2021-07-26 13:17 32.86 41.24 1001.46
2021-07-26 13:07 32.88 40.48 1001.62
2021-07-26 12:57 32.72 41.26 1001.63
2021-07-26 12:47 32.57 41.03 1001.87
2021-07-26 12:37 32.56 40.54 1001.97
2021-07-26 12:27 32.37 40.55 1002.09
2021-07-26 12:17 32.4 40.72 1002.17
2021-07-26 12:07 32.31 39.65 1002.27
2021-07-26 11:57 32.5 40.16 1002.31
2021-07-26 11:47 32.11 40.21 1002.49
2021-07-26 11:37 32.46 40.83 1002.48
2021-07-26 11:27 32.25 40.02 1002.63
2021-07-26 11:17 32.35 40.63 1002.87
2021-07-26 11:07 32.26 40.24 1002.76
2021-07-26 10:57 32.26 40.3 1002.83
2021-07-26 10:47 32.6 41.07 1002.8
2021-07-26 10:37 32.58 42.44 1003.03